createdAt,value
2018-11-01T00:04:03.672Z,4.83
2018-11-01T00:09:07.599Z,4.40
2018-11-01T00:14:09.951Z,5.13
2018-11-01T00:19:12.288Z,5.27
2018-11-01T00:24:15.382Z,5.20
2018-11-01T00:29:17.740Z,5.53
2018-11-01T00:34:20.132Z,5.30
2018-11-01T00:39:22.473Z,4.67
2018-11-01T00:44:24.804Z,5.03
2018-11-01T00:49:27.132Z,5.33
2018-11-01T00:54:29.464Z,5.80
2018-11-01T00:59:31.788Z,5.27
2018-11-01T01:04:34.887Z,5.20
2018-11-01T01:09:37.231Z,5.17
2018-11-01T01:14:39.576Z,5.97
2018-11-01T01:19:41.920Z,5.80
2018-11-01T01:24:44.259Z,5.73
2018-11-01T01:29:46.629Z,5.43
2018-11-01T01:34:49.010Z,5.37
2018-11-01T01:39:51.371Z,5.70
2018-11-01T01:44:53.701Z,5.93
2018-11-01T01:49:56.024Z,5.73
2018-11-01T01:54:58.352Z,5.83
2018-11-01T02:00:00.712Z,5.37
2018-11-01T02:05:04.098Z,5.67
2018-11-01T02:10:08.277Z,5.63
2018-11-01T02:15:14.758Z,5.90
2018-11-01T02:20:18.507Z,5.40
2018-11-01T02:25:20.879Z,5.53
2018-11-01T02:30:23.260Z,5.57
2018-11-01T02:35:25.712Z,5.57
2018-11-01T02:40:28.076Z,5.87
2018-11-01T02:45:30.546Z,5.50
2018-11-01T02:50:32.951Z,5.70
2018-11-01T02:55:35.277Z,5.87
2018-11-01T03:00:37.622Z,6.07
2018-11-01T03:05:40.048Z,6.63
2018-11-01T03:10:42.449Z,5.90
2018-11-01T03:15:44.776Z,5.60
2018-11-01T03:20:47.123Z,6.23
2018-11-01T03:25:49.471Z,5.60
2018-11-01T03:30:51.848Z,6.53
2018-11-01T03:35:55.341Z,5.80
2018-11-01T03:40:57.721Z,5.83
2018-11-01T03:46:00.104Z,6.17
2018-11-01T03:51:02.487Z,6.23
2018-11-01T03:56:04.934Z,6.60
2018-11-01T04:01:07.364Z,5.73
2018-11-01T04:06:09.747Z,5.70
2018-11-01T04:11:12.316Z,5.93
2018-11-01T04:16:14.892Z,5.30
2018-11-01T04:21:17.264Z,5.70
2018-11-01T04:26:19.537Z,5.23
2018-11-01T04:31:22.001Z,5.47
2018-11-01T04:36:24.815Z,5.70
2018-11-01T04:41:27.082Z,5.80
2018-11-01T04:46:29.441Z,6.20
2018-11-01T04:51:31.838Z,6.47
2018-11-01T04:56:34.414Z,6.63
2018-11-01T05:01:36.823Z,7.70
2018-11-01T05:06:39.148Z,7.77
2018-11-01T05:11:41.423Z,6.97
2018-11-01T05:16:43.781Z,6.97
2018-11-01T05:21:46.149Z,6.60
2018-11-01T05:26:48.543Z,9.23
2018-11-01T05:31:50.915Z,11.60
2018-11-01T05:36:53.294Z,9.03
2018-11-01T05:41:55.573Z,8.03
2018-11-01T05:46:57.873Z,12.03
2018-11-01T05:52:00.131Z,7.43
2018-11-01T05:57:02.424Z,7.50
2018-11-01T06:02:12.102Z,9.23
2018-11-01T06:07:16.079Z,12.43
2018-11-01T06:12:18.347Z,9.17
2018-11-01T06:17:20.642Z,8.47
2018-11-01T06:22:22.981Z,10.83
2018-11-01T06:27:25.244Z,11.37
2018-11-01T06:32:27.563Z,17.67
2018-11-01T06:37:29.958Z,22.00
2018-11-01T06:42:32.238Z,21.07
2018-11-01T06:47:34.514Z,12.20
2018-11-01T06:52:37.255Z,9.73
2018-11-01T06:57:39.627Z,10.97
2018-11-01T07:02:42.124Z,13.17
2018-11-01T07:07:44.511Z,15.17
2018-11-01T07:12:46.761Z,14.70
2018-11-01T07:17:49.251Z,9.67
2018-11-01T07:22:51.546Z,9.27
2018-11-01T07:27:54.132Z,9.10
2018-11-01T07:32:56.581Z,8.47
2018-11-01T07:37:58.930Z,9.63
2018-11-01T07:43:01.321Z,11.90
2018-11-01T07:48:03.678Z,15.30
2018-11-01T07:53:06.019Z,8.40
2018-11-01T07:58:08.709Z,8.77
2018-11-01T08:03:11.134Z,12.63
2018-11-01T08:08:13.683Z,10.53
2018-11-01T08:13:15.980Z,11.57
2018-11-01T08:18:18.306Z,12.70
2018-11-01T08:23:20.899Z,11.23
2018-11-01T08:28:23.189Z,10.27
2018-11-01T08:33:25.477Z,10.13
2018-11-01T08:38:27.821Z,10.10
2018-11-01T08:43:30.185Z,10.17
2018-11-01T08:48:32.474Z,10.23
2018-11-01T08:53:34.779Z,10.13
2018-11-01T08:58:37.059Z,9.70
2018-11-01T09:03:39.433Z,10.13
2018-11-01T09:08:41.726Z,12.13
2018-11-01T09:13:44.002Z,14.50
2018-11-01T09:18:46.361Z,12.97
2018-11-01T09:23:48.623Z,11.50
2018-11-01T09:28:50.913Z,10.50
2018-11-01T09:33:53.238Z,10.15
2018-11-01T09:38:55.602Z,9.47
2018-11-01T09:43:58.753Z,8.98
2018-11-01T09:49:01.047Z,7.30
2018-11-01T09:54:03.461Z,8.65
2018-11-01T09:59:05.931Z,10.45
2018-11-01T10:04:08.827Z,10.30
2018-11-01T10:09:12.361Z,10.15
2018-11-01T10:14:14.742Z,8.35
2018-11-01T10:19:17.031Z,8.88
2018-11-01T10:24:19.331Z,8.83
2018-11-01T10:29:21.667Z,10.20
2018-11-01T10:34:25.013Z,10.08
2018-11-01T10:39:27.349Z,11.35
2018-11-01T10:44:29.647Z,9.95
2018-11-01T10:49:31.957Z,9.95
2018-11-01T10:59:28.972Z,8.75
2018-11-01T11:04:31.249Z,8.23
2018-11-01T11:09:33.636Z,9.15
2018-11-01T11:14:36.251Z,8.65
2018-11-01T11:19:38.513Z,8.73
2018-11-01T11:24:40.794Z,8.73
2018-11-01T11:29:43.206Z,8.63
2018-11-01T11:34:45.462Z,7.72
2018-11-01T11:39:47.857Z,8.03
2018-11-01T11:44:50.054Z,7.30
2018-11-01T11:49:52.331Z,8.90
2018-11-01T11:54:54.606Z,8.18
2018-11-01T11:59:56.882Z,8.28
2018-11-01T12:04:59.157Z,8.98
2018-11-01T12:10:01.470Z,9.45
2018-11-01T12:15:03.821Z,8.35
2018-11-01T12:20:07.695Z,8.58
2018-11-01T12:25:10.578Z,8.60
2018-11-01T12:30:12.923Z,7.78
2018-11-01T12:35:15.232Z,8.68
2018-11-01T12:40:17.608Z,8.90
2018-11-01T12:45:20.090Z,8.63
2018-11-01T12:50:22.441Z,8.58
2018-11-01T12:55:24.735Z,8.95
2018-11-01T13:00:27.054Z,9.60
2018-11-01T13:05:29.419Z,10.23
2018-11-01T13:10:32.160Z,10.48
2018-11-01T13:15:34.470Z,11.18
2018-11-01T13:20:36.757Z,11.53
2018-11-01T13:25:39.059Z,12.35
2018-11-01T13:30:41.388Z,10.50
2018-11-01T13:35:43.759Z,8.65
2018-11-01T13:40:46.431Z,7.22
2018-11-01T13:45:48.369Z,6.22
2018-11-01T13:50:50.655Z,5.65
2018-11-01T13:55:52.969Z,5.62
2018-11-01T14:00:55.370Z,6.10
2018-11-01T14:05:57.672Z,6.92
2018-11-01T14:11:00.019Z,6.58
2018-11-01T14:16:02.365Z,6.28
2018-11-01T14:21:04.645Z,5.85
2018-11-01T14:26:06.931Z,5.80
2018-11-01T14:31:09.316Z,5.25
2018-11-01T14:36:11.563Z,5.12
2018-11-01T14:41:13.897Z,4.83
2018-11-01T14:46:16.186Z,4.37
2018-11-01T14:51:18.465Z,4.00
2018-11-01T14:56:22.116Z,4.10
2018-11-01T15:01:23.085Z,4.12
2018-11-01T15:06:25.404Z,4.00
2018-11-01T15:11:27.786Z,4.08
2018-11-01T15:16:30.073Z,3.60
2018-11-01T15:21:32.355Z,3.80
2018-11-01T15:26:34.662Z,3.40
2018-11-01T15:31:37.019Z,3.52
2018-11-01T15:36:39.351Z,3.25
2018-11-01T15:41:42.086Z,3.45
2018-11-01T15:46:44.386Z,3.60
2018-11-01T15:51:46.702Z,3.50
2018-11-01T15:56:49.014Z,3.80
2018-11-01T16:01:51.547Z,3.58
2018-11-01T16:06:54.030Z,3.55
2018-11-01T16:11:56.610Z,3.60
2018-11-01T16:16:58.938Z,4.80
2018-11-01T16:22:01.914Z,4.47
2018-11-01T16:27:05.286Z,5.33
2018-11-01T16:32:08.576Z,5.58
2018-11-01T16:37:12.029Z,5.30
2018-11-01T16:42:15.597Z,4.97
2018-11-01T16:47:19.092Z,5.05
2018-11-01T16:52:21.989Z,5.20
2018-11-01T16:57:25.216Z,5.08
2018-11-01T17:02:28.635Z,7.00
2018-11-01T17:07:31.105Z,7.30
2018-11-01T17:12:33.903Z,7.45
2018-11-01T17:17:37.989Z,9.90
2018-11-01T17:22:41.070Z,10.70
2018-11-01T17:27:43.428Z,10.60
2018-11-01T17:32:48.093Z,6.87
2018-11-01T17:37:50.516Z,8.70
2018-11-01T17:42:52.989Z,8.90
2018-11-01T17:47:55.416Z,6.20
2018-11-01T17:52:57.776Z,5.95
2018-11-01T17:58:00.091Z,6.70
2018-11-01T18:03:02.825Z,7.30
2018-11-01T18:08:05.336Z,7.05
2018-11-01T18:13:07.814Z,7.50
2018-11-01T18:18:10.218Z,7.28
2018-11-01T18:23:12.615Z,6.40
2018-11-01T18:28:15.602Z,6.40
2018-11-01T18:33:17.904Z,5.70
2018-11-01T18:38:20.760Z,7.92
2018-11-01T18:43:23.134Z,8.03
2018-11-01T18:48:25.480Z,8.75
2018-11-01T18:53:27.790Z,8.18
2018-11-01T18:58:30.078Z,6.42
2018-11-01T19:03:32.733Z,5.65
2018-11-01T19:11:29.581Z,5.73
2018-11-01T19:16:31.926Z,6.47
2018-11-01T19:21:34.327Z,6.10
2018-11-01T19:26:36.647Z,6.10
2018-11-01T19:31:39.646Z,5.17
2018-11-01T19:36:41.977Z,5.80
2018-11-01T19:41:44.265Z,5.75
2018-11-01T19:46:46.604Z,5.97
2018-11-01T19:51:48.897Z,5.60
2018-11-01T19:56:51.228Z,5.77
2018-11-01T20:01:53.617Z,6.27
2018-11-01T20:06:55.913Z,6.22
2018-11-01T20:11:58.289Z,6.40
2018-11-01T20:17:00.615Z,5.70
2018-11-01T20:22:02.927Z,5.85
2018-11-01T20:27:06.371Z,5.73
2018-11-01T20:32:08.682Z,5.53
2018-11-01T20:37:11.111Z,5.70
2018-11-01T20:42:13.364Z,5.40
2018-11-01T20:47:15.663Z,5.30
2018-11-01T20:52:17.964Z,5.50
2018-11-01T20:57:20.334Z,5.13
2018-11-01T21:02:22.518Z,5.57
2018-11-01T21:07:24.814Z,6.23
2018-11-01T21:12:27.196Z,5.77
2018-11-01T21:17:29.746Z,5.60
2018-11-01T21:22:32.023Z,6.08
2018-11-01T21:27:34.301Z,5.40
2018-11-01T21:32:36.646Z,5.03
2018-11-01T21:37:38.944Z,5.07
2018-11-01T21:42:41.234Z,4.97
2018-11-01T21:47:43.569Z,4.60
2018-11-01T21:52:45.857Z,5.03
2018-11-01T21:57:48.153Z,5.33
2018-11-01T22:02:50.533Z,5.40
2018-11-01T22:07:54.189Z,5.23
2018-11-01T22:12:56.623Z,5.67
2018-11-01T22:17:59.104Z,4.87
2018-11-01T22:23:01.407Z,4.60
2018-11-01T22:28:04.250Z,4.77
2018-11-01T22:33:06.619Z,5.67
2018-11-01T22:38:08.923Z,5.70
2018-11-01T22:43:11.242Z,5.57
2018-11-01T22:48:13.899Z,5.10
2018-11-01T22:53:16.217Z,4.80
2018-11-01T22:58:18.507Z,4.80
2018-11-01T23:03:20.800Z,4.90
2018-11-01T23:08:23.123Z,4.97
2018-11-01T23:13:25.418Z,5.13
2018-11-01T23:18:27.770Z,5.50
2018-11-01T23:23:30.074Z,5.77
2018-11-01T23:28:32.398Z,5.70
2018-11-01T23:33:34.724Z,5.60
2018-11-01T23:38:42.923Z,5.83
2018-11-01T23:43:50.949Z,5.30
2018-11-01T23:49:01.199Z,6.10
2018-11-01T23:54:03.565Z,5.80
2018-11-01T23:59:05.871Z,6.17
